Terminal Aerodrome Forecast
Issued by NWS

Home | Current Version | Previous Version | Graphics & Text | Print | Product List | Glossary On
Versions: 1 2 3 4 5 6 7 8 9 10 11 12 13
760
FTUS43 KFGF 250540
TAFBJI
TAF
KBJI 250540Z 2506/2606 32009KT P6SM SKC
     FM251300 29008KT P6SM SCT050
     FM251700 28008KT P6SM BKN040
     FM252300 27007KT P6SM BKN030=

USA.gov is the U.S. government's official web portal to all federal, state and local government web resources and services.